Pagrindinis puslapis
METAR-TAF:

METAR-TAF

Oro uostai :

Kaškaišas, Portugalija

platuma: 38-43-32N, ilguma: 009-21-19W, Aukštis: 99 m

Dabartinis oras

Ataskaita buvo paskelbta 59 minutes, ne 13:30 UTC
Vėjas 15 kt iš Šiaurės/Šiaurės Vakarų, svyruoja nuo Vakarų/Šiaurės Vakarų ir Šiaurės
Temperatūra 18°C
Drėgmė 64%
Slėgis 1014 hPa
Matomumas 10 km arba daugiau
Mažai debesys ne aukštis 2200 ft
Išsisklaidę debesys ne aukštis 2500 ft

METAR: LPCS 251330Z 33015KT 300V010 9999 FEW022 SCT025 18/11 Q1014

Laikas: 15:29 (14:29 UTC)

Prognozė

Ataskaita buvo paskelbta 3 valandos ir 29 minutes, ne 11:00 UTC
Prognozė galioja nuo 25 metu 12 UTC su 25 metu 21 UTC
Vėjas 17 kt iš Šiaurės
Matomumas 10 km arba daugiau
Išsisklaidę debesys ne aukštis 3000 ft
Laikinai
nuo 25 metu 12 UTC su 25 metu 21 UTC
Vėjas 20 kt iš Šiaurės/Šiaurės Vakarų su gūsio iki 32 kt

TAF: LPCS 251100Z 2512/2521 35017KT 9999 SCT030 TEMPO 2512/2521 33020G32KT

Orai ataskaitas ir orų prognozės (METAR, TAF).

turimą stotys yra geltonos ir raudonos taškus žemėlapyje.

Perkelti pele per norėdami pamatyti stoties vardą.

Tada spustelėkite, norėdami matyti oro stebėjimo ir prognozės.

Norėdami pakeisti žemėlapį: spustelėkite ant žalios mygtukų su juodo kryžiaus žemyn,; žalią mygtuką su brūkšneliu, jei norite nutolinti; arba žalių rodyklių gretimoms žemėlapius.


METAR-TAF: